Time;durP1;ratioP1;P1;durP2;ratioP2;P2;SDS_P1;SDS_P2;PMS_P1;PMS_P2;Temp;Humidity;BMP_temperature;BMP_pressure;BME280_temperature;BME280_humidity;BME280_pressure;Samples;Min_cycle;Max_cycle;Signal;HPM_P1;HPM_P2
2023/01/01 00:00:27;;;;;;;19.85;11.85;;;15.10;1.00;;;;;;5033155;28;20088;-35
2023/01/01 00:02:55;;;;;;;26.33;12.88;;;15.10;1.00;;;;;;5033588;28;20128;-35
2023/01/01 00:05:22;;;;;;;16.60;11.88;;;15.10;1.00;;;;;;5033552;28;20328;-35
2023/01/01 00:07:48;;;;;;;22.58;13.02;;;15.10;1.00;;;;;;5033512;28;20099;-36
2023/01/01 00:10:27;;;;;;;23.83;11.50;;;15.10;1.00;;;;;;5033556;28;20064;-36
2023/01/01 00:12:56;;;;;;;25.38;11.43;;;15.10;1.00;;;;;;5033235;28;20484;-36
2023/01/01 00:15:23;;;;;;;21.90;11.93;;;15.10;1.00;;;;;;5033360;28;20044;-36
2023/01/01 00:17:50;;;;;;;22.17;10.95;;;15.10;1.00;;;;;;5033450;28;20554;-35
2023/01/01 00:20:17;;;;;;;20.35;12.30;;;15.10;1.00;;;;;;5033349;28;20655;-35
2023/01/01 00:22:44;;;;;;;19.05;10.75;;;15.10;1.00;;;;;;5033147;28;20056;-35
2023/01/01 00:25:21;;;;;;;23.60;10.32;;;15.10;1.00;;;;;;5033100;28;20073;-36
2023/01/01 00:27:48;;;;;;;22.05;10.63;;;15.10;1.00;;;;;;5033151;28;20480;-36
2023/01/01 00:30:15;;;;;;;21.95;10.77;;;15.10;1.00;;;;;;5033272;28;20471;-36
2023/01/01 00:32:42;;;;;;;20.50;9.40;;;15.10;1.00;;;;;;5032831;28;20096;-36
2023/01/01 00:35:20;;;;;;;19.23;9.98;;;15.10;1.00;;;;;;5033005;28;20041;-35
2023/01/01 00:37:47;;;;;;;17.42;10.30;;;15.10;1.00;;;;;;5032948;28;20046;-36
2023/01/01 00:40:14;;;;;;;21.25;10.32;;;15.10;1.00;;;;;;5033071;28;20045;-36
2023/01/01 00:42:41;;;;;;;21.35;10.38;;;15.10;1.00;;;;;;5032814;28;20049;-36
2023/01/01 00:45:08;;;;;;;20.90;10.68;;;15.10;1.00;;;;;;5015378;28;20412;-36
2023/01/01 00:47:41;;;;;;;21.80;10.13;;;15.10;1.00;;;;;;5032940;28;20055;-36
2023/01/01 00:50:08;;;;;;;18.48;9.20;;;15.10;1.00;;;;;;5032670;28;20107;-36
2023/01/01 00:52:35;;;;;;;25.02;11.40;;;15.10;1.00;;;;;;5032541;28;20053;-36
2023/01/01 00:55:02;;;;;;;21.67;9.88;;;15.10;1.00;;;;;;5032450;28;20048;-36
2023/01/01 00:57:28;;;;;;;22.50;10.15;;;15.10;1.00;;;;;;5032626;28;20069;-36
2023/01/01 00:59:55;;;;;;;20.30;10.68;;;15.10;1.00;;;;;;5032680;28;20045;-36
2023/01/01 01:02:22;;;;;;;23.98;10.52;;;15.10;1.00;;;;;;5032351;28;20045;-36
2023/01/01 01:04:49;;;;;;;17.77;8.30;;;15.10;1.00;;;;;;5032298;28;20472;-35
2023/01/01 01:07:16;;;;;;;17.17;8.15;;;15.10;1.00;;;;;;5032251;28;20045;-36
2023/01/01 01:09:43;;;;;;;21.40;9.25;;;15.10;1.00;;;;;;5032499;28;20055;-36
2023/01/01 01:12:09;;;;;;;19.77;8.52;;;15.10;1.00;;;;;;5031548;28;20068;-36
2023/01/01 01:14:45;;;;;;;22.50;9.00;;;15.10;1.00;;;;;;5032167;28;20450;-36
2023/01/01 01:17:12;;;;;;;15.50;9.43;;;15.10;1.00;;;;;;5032354;28;20099;-35
2023/01/01 01:19:39;;;;;;;16.23;8.15;;;15.10;1.00;;;;;;5032198;28;20125;-35
2023/01/01 01:22:05;;;;;;;18.25;8.13;;;15.10;1.00;;;;;;5032248;28;20045;-36
2023/01/01 01:24:32;;;;;;;21.95;8.77;;;15.10;1.00;;;;;;5032105;28;20075;-36
2023/01/01 01:26:59;;;;;;;17.70;8.13;;;15.10;1.00;;;;;;5032056;28;20468;-36
2023/01/01 01:29:26;;;;;;;17.83;7.90;;;15.10;1.00;;;;;;5032119;28;20042;-36
2023/01/01 01:31:52;;;;;;;14.95;7.50;;;15.10;1.00;;;;;;5032065;28;20065;-36
2023/01/01 01:34:19;;;;;;;17.60;8.25;;;15.10;1.00;;;;;;5031773;28;20496;-36
2023/01/01 01:36:53;;;;;;;15.43;7.07;;;15.10;1.00;;;;;;5031968;28;20048;-36
2023/01/01 01:39:21;;;;;;;18.35;7.32;;;15.10;1.00;;;;;;5032015;28;20041;-35
2023/01/01 01:41:47;;;;;;;17.58;9.23;;;15.10;1.00;;;;;;5031958;28;20538;-36
2023/01/01 01:44:48;;;;;;;16.08;7.68;;;15.10;1.00;;;;;;5031692;28;20469;-35
2023/01/01 01:47:24;;;;;;;16.85;7.70;;;15.10;1.00;;;;;;5031786;28;20041;-35
2023/01/01 01:50:14;;;;;;;15.95;7.40;;;15.10;1.00;;;;;;5031865;28;20085;-36
2023/01/01 01:53:07;;;;;;;22.10;8.88;;;15.10;1.00;;;;;;5032101;28;20427;-35
2023/01/01 01:55:42;;;;;;;17.37;8.90;;;15.10;1.00;;;;;;5023001;28;20084;-36
2023/01/01 01:58:12;;;;;;;15.55;6.75;;;15.10;1.00;;;;;;5031898;28;20091;-35
2023/01/01 02:00:38;;;;;;;16.77;7.00;;;15.10;1.00;;;;;;5031938;28;20446;-36
2023/01/01 02:03:12;;;;;;;16.40;7.78;;;15.10;1.00;;;;;;5031918;28;20056;-36
2023/01/01 02:05:40;;;;;;;21.20;8.30;;;15.10;1.00;;;;;;5032125;28;20052;-35
2023/01/01 02:08:08;;;;;;;14.70;6.35;;;15.10;1.00;;;;;;5031695;28;20087;-36
2023/01/01 02:10:36;;;;;;;14.48;7.07;;;15.10;1.00;;;;;;5031736;28;20060;-35
2023/01/01 02:13:02;;;;;;;14.55;6.72;;;15.10;1.00;;;;;;5031340;28;20120;-35
2023/01/01 02:15:36;;;;;;;14.23;6.93;;;15.10;1.00;;;;;;5031553;28;20061;-35
2023/01/01 02:18:10;;;;;;;15.48;7.97;;;15.00;1.00;;;;;;5031649;28;20045;-36
2023/01/01 02:21:01;;;;;;;18.80;8.60;;;15.10;1.00;;;;;;5031605;28;20045;-36
2023/01/01 02:23:34;;;;;;;23.45;8.00;;;15.00;1.00;;;;;;5033303;28;20104;-35
2023/01/01 02:26:24;;;;;;;13.98;6.07;;;15.10;1.00;;;;;;5035390;28;20049;-36
2023/01/01 02:28:59;;;;;;;14.60;7.00;;;15.10;1.00;;;;;;5035406;28;20481;-36
2023/01/01 02:31:30;;;;;;;12.80;6.28;;;15.10;1.00;;;;;;5017691;28;20045;-35
2023/01/01 02:34:02;;;;;;;11.07;6.53;;;15.00;1.00;;;;;;5035132;28;20291;-35
2023/01/01 02:36:31;;;;;;;16.48;6.32;;;15.00;1.00;;;;;;5017490;28;20045;-35
2023/01/01 02:39:01;;;;;;;19.70;7.43;;;15.00;1.00;;;;;;5035211;28;20449;-35
2023/01/01 02:41:42;;;;;;;16.17;7.13;;;15.00;1.00;;;;;;5035234;28;20683;-35
2023/01/01 02:44:10;;;;;;;16.42;6.25;;;15.00;1.00;;;;;;5034955;28;20048;-35
2023/01/01 02:46:37;;;;;;;19.80;6.70;;;15.10;1.00;;;;;;5035064;28;20052;-35
2023/01/01 02:49:04;;;;;;;18.15;6.90;;;15.00;1.00;;;;;;5034864;28;20091;-35
2023/01/01 02:52:24;;;;;;;23.10;5.97;;;15.00;1.00;;;;;;5035052;28;20443;-36
2023/01/01 02:55:06;;;;;;;12.70;6.50;;;15.00;1.00;;;;;;4954219;28;20039;-37
2023/01/01 02:57:44;;;;;;;14.23;5.82;;;15.00;1.00;;;;;;4954461;29;20403;-35
2023/01/01 03:00:30;;;;;;;12.25;6.22;;;15.00;1.00;;;;;;5000925;28;20088;-35
2023/01/01 03:03:13;;;;;;;19.83;6.60;;;15.00;1.00;;;;;;5034602;28;20046;-35
2023/01/01 03:08:59;;;;;;;13.95;5.68;;;15.00;1.00;;;;;;5022037;28;20060;-35
2023/01/01 03:11:50;;;;;;;16.52;5.72;;;15.00;1.00;;;;;;5034648;28;20120;-35
2023/01/01 03:14:28;;;;;;;16.00;5.75;;;15.00;1.00;;;;;;5034281;28;20092;-36
2023/01/01 03:17:20;;;;;;;11.65;5.75;;;15.00;1.00;;;;;;5034828;28;20037;-36
2023/01/01 03:19:48;;;;;;;17.30;5.70;;;15.00;1.00;;;;;;5034566;28;20041;-35
2023/01/01 03:22:17;;;;;;;15.73;5.70;;;15.00;1.00;;;;;;5034368;28;20045;-36
2023/01/01 03:24:46;;;;;;;13.63;4.78;;;15.00;1.00;;;;;;5034105;28;20060;-36
2023/01/01 03:27:30;;;;;;;13.68;5.68;;;15.00;1.00;;;;;;5034383;28;20507;-36
2023/01/01 03:30:02;;;;;;;16.63;6.15;;;15.00;1.00;;;;;;5034350;28;20061;-35
2023/01/01 03:35:24;;;;;;;;;;;15.00;1.00;;;;;;5033833;28;20045;-36
2023/01/01 03:37:54;;;;;;;12.60;5.60;;;15.00;1.00;;;;;;5034395;28;20318;-36
2023/01/01 03:40:22;;;;;;;13.85;5.80;;;15.00;1.00;;;;;;5034076;28;20041;-36
2023/01/01 03:42:53;;;;;;;12.73;5.15;;;15.00;1.00;;;;;;5033888;28;20100;-35
2023/01/01 03:45:25;;;;;;;14.80;6.82;;;15.00;1.00;;;;;;5033835;28;20099;-35
2023/01/01 03:47:53;;;;;;;14.48;4.63;;;15.00;1.00;;;;;;5033904;28;20132;-36
2023/01/01 03:50:27;;;;;;;15.73;5.82;;;15.00;1.00;;;;;;5034208;28;20456;-35
2023/01/01 03:53:08;;;;;;;11.15;4.95;;;15.00;1.00;;;;;;5033724;28;20037;-35
2023/01/01 03:55:48;;;;;;;11.90;5.18;;;15.00;1.00;;;;;;5033751;28;20053;-35
2023/01/01 03:58:29;;;;;;;12.00;6.10;;;15.00;1.00;;;;;;5033789;28;20037;-36
2023/01/01 04:01:05;;;;;;;14.85;4.82;;;15.00;1.00;;;;;;5034049;28;20088;-36
2023/01/01 04:03:34;;;;;;;16.17;5.22;;;15.00;1.00;;;;;;5033580;28;20045;-36
2023/01/01 04:06:02;;;;;;;12.98;4.95;;;15.00;1.00;;;;;;5033523;28;20128;-36
2023/01/01 04:08:32;;;;;;;15.07;5.47;;;15.00;1.00;;;;;;5033437;28;20500;-37
2023/01/01 04:12:00;;;;;;;12.25;5.57;;;15.00;1.00;;;;;;5033585;28;20059;-35
2023/01/01 04:13:49;;;;;;;15.75;5.03;;;15.00;1.00;;;;;;5033066;28;20041;-35
2023/01/01 04:16:16;;;;;;;12.48;3.78;;;15.00;1.00;;;;;;5015904;28;20071;-36
2023/01/01 04:18:43;;;;;;;13.55;4.65;;;15.00;1.00;;;;;;5033346;28;20050;-35
2023/01/01 04:21:11;;;;;;;11.93;4.63;;;15.00;1.00;;;;;;5033466;28;20049;-36
2023/01/01 04:23:38;;;;;;;10.80;4.43;;;15.00;1.00;;;;;;5033117;28;20045;-37
2023/01/01 04:26:04;;;;;;;10.38;4.55;;;15.00;1.00;;;;;;5033326;28;20048;-36
2023/01/01 04:28:31;;;;;;;10.55;4.20;;;15.00;1.00;;;;;;5015477;28;20056;-36
2023/01/01 04:31:01;;;;;;;13.90;4.40;;;15.00;1.00;;;;;;5033111;28;20468;-36
2023/01/01 04:33:28;;;;;;;13.40;4.38;;;15.00;1.00;;;;;;5033065;28;20117;-36
2023/01/01 04:35:55;;;;;;;14.55;4.45;;;15.00;1.00;;;;;;5032978;28;20045;-35
2023/01/01 04:38:21;;;;;;;11.30;5.13;;;15.00;1.00;;;;;;5032991;28;20500;-35
2023/01/01 04:40:59;;;;;;;16.02;4.45;;;15.00;1.00;;;;;;5015498;28;20052;-35
2023/01/01 04:43:25;;;;;;;13.93;4.38;;;15.00;1.00;;;;;;5032642;28;20052;-36
2023/01/01 04:45:57;;;;;;;13.57;4.28;;;15.00;1.00;;;;;;5032642;28;20049;-36
2023/01/01 04:48:25;;;;;;;8.45;3.63;;;15.00;1.00;;;;;;5032776;28;20041;-35
2023/01/01 04:51:03;;;;;;;15.50;4.30;;;15.00;1.00;;;;;;5015430;28;20048;-35
2023/01/01 04:53:32;;;;;;;12.93;5.43;;;15.00;1.00;;;;;;5032980;28;20041;-35
2023/01/01 04:56:08;;;;;;;12.50;4.50;;;15.00;1.00;;;;;;5032995;28;20037;-35
2023/01/01 04:58:36;;;;;;;12.77;4.32;;;15.00;1.00;;;;;;5033093;28;20053;-35
2023/01/01 05:01:03;;;;;;;12.13;4.32;;;15.00;1.00;;;;;;5032703;28;20056;-35
2023/01/01 05:03:31;;;;;;;9.75;3.67;;;15.00;1.00;;;;;;5032300;28;20041;-35
2023/01/01 05:06:02;;;;;;;13.93;4.20;;;15.00;1.00;;;;;;5032521;28;20409;-35
2023/01/01 05:08:31;;;;;;;11.38;3.88;;;15.00;1.00;;;;;;5032431;28;20091;-35
2023/01/01 05:11:03;;;;;;;16.23;4.78;;;15.00;1.00;;;;;;5032420;28;20042;-35
2023/01/01 05:13:36;;;;;;;13.57;3.53;;;15.00;1.00;;;;;;5032044;28;20120;-35
2023/01/01 05:16:08;;;;;;;14.27;3.72;;;15.00;1.00;;;;;;5032401;28;20048;-35
2023/01/01 05:18:35;;;;;;;12.23;4.35;;;15.00;1.00;;;;;;5032558;28;20111;-35
2023/01/01 05:21:13;;;;;;;13.98;3.88;;;15.00;1.00;;;;;;5032779;28;20041;-35
2023/01/01 05:23:41;;;;;;;15.15;4.40;;;15.00;1.00;;;;;;5031968;28;20488;-35
2023/01/01 05:26:13;;;;;;;8.82;3.65;;;15.00;1.00;;;;;;5032066;28;20049;-37
2023/01/01 05:28:41;;;;;;;16.08;5.88;;;15.00;1.00;;;;;;5014418;28;20448;-36
2023/01/01 05:31:18;;;;;;;16.83;4.75;;;15.00;1.00;;;;;;5014334;28;20080;-36
2023/01/01 05:33:45;;;;;;;11.00;3.58;;;15.00;1.00;;;;;;5031749;28;20141;-36
2023/01/01 05:36:18;;;;;;;10.00;3.30;;;15.00;1.00;;;;;;5031982;28;20099;-35
2023/01/01 05:38:46;;;;;;;13.45;4.15;;;15.00;1.00;;;;;;5032028;28;20100;-35
2023/01/01 05:41:14;;;;;;;11.57;4.10;;;15.00;1.00;;;;;;5031994;28;20045;-36
2023/01/01 05:43:42;;;;;;;11.70;4.60;;;15.00;1.00;;;;;;5031672;28;20041;-36
2023/01/01 05:46:14;;;;;;;7.72;3.83;;;15.00;1.00;;;;;;5031893;28;20045;-36
2023/01/01 05:48:42;;;;;;;13.77;5.20;;;15.00;1.00;;;;;;5031902;28;20037;-36
2023/01/01 05:51:17;;;;;;;14.55;4.80;;;15.00;1.00;;;;;;5031916;28;20041;-36
2023/01/01 05:53:44;;;;;;;12.63;4.60;;;14.90;1.00;;;;;;5014132;28;20500;-36
2023/01/01 05:56:12;;;;;;;12.48;3.97;;;14.90;1.00;;;;;;5031726;28;20048;-35
2023/01/01 05:58:39;;;;;;;9.63;3.20;;;14.90;1.00;;;;;;5036237;28;20049;-35
2023/01/01 06:01:16;;;;;;;10.30;3.58;;;14.90;1.00;;;;;;5038584;28;20548;-35
2023/01/01 06:03:43;;;;;;;12.32;4.20;;;14.90;1.00;;;;;;5020602;28;20099;-35
2023/01/01 06:06:16;;;;;;;9.65;3.25;;;14.90;1.00;;;;;;5038290;28;20048;-35
2023/01/01 06:08:48;;;;;;;9.57;3.08;;;15.00;1.00;;;;;;5038962;28;20077;-36
2023/01/01 06:11:15;;;;;;;9.57;3.55;;;14.90;1.00;;;;;;5038265;28;20041;-35
2023/01/01 06:13:42;;;;;;;5.30;2.70;;;14.90;1.00;;;;;;5038054;28;20053;-35
2023/01/01 06:16:09;;;;;;;12.35;3.60;;;14.90;1.00;;;;;;5038111;28;20037;-35
2023/01/01 06:18:36;;;;;;;14.00;4.20;;;14.90;1.00;;;;;;5038244;28;20042;-35
2023/01/01 06:21:10;;;;;;;9.15;3.22;;;14.90;1.00;;;;;;5038362;28;20037;-35
2023/01/01 06:23:37;;;;;;;14.85;4.00;;;14.90;1.00;;;;;;5037810;28;20091;-35
2023/01/01 06:26:05;;;;;;;14.57;4.40;;;15.00;1.00;;;;;;5038048;28;20037;-34
2023/01/01 06:28:32;;;;;;;11.18;3.63;;;14.90;1.00;;;;;;5038335;28;20377;-35
2023/01/01 06:31:00;;;;;;;10.55;3.65;;;14.90;1.00;;;;;;5038131;28;20120;-35
2023/01/01 06:33:28;;;;;;;12.93;4.65;;;15.00;1.00;;;;;;5037996;28;20038;-35
2023/01/01 06:35:55;;;;;;;13.10;3.15;;;14.90;1.00;;;;;;5038051;28;20037;-35
2023/01/01 06:38:22;;;;;;;10.85;3.63;;;14.90;1.00;;;;;;5038012;28;20480;-35
2023/01/01 06:41:03;;;;;;;11.27;2.60;;;14.90;1.00;;;;;;5038063;28;20136;-35
2023/01/01 06:43:32;;;;;;;13.77;3.60;;;14.90;1.00;;;;;;5037824;28;20037;-35
2023/01/01 06:46:03;;;;;;;10.32;3.10;;;14.90;1.00;;;;;;5038030;28;20459;-35
2023/01/01 06:48:32;;;;;;;11.93;3.47;;;14.90;1.00;;;;;;5037987;28;20045;-35
2023/01/01 06:51:05;;;;;;;8.73;3.47;;;14.90;1.00;;;;;;5037830;28;20041;-35
2023/01/01 06:53:32;;;;;;;11.30;3.55;;;14.90;1.00;;;;;;5037751;28;20042;-35
2023/01/01 06:55:58;;;;;;;14.18;3.40;;;15.00;1.00;;;;;;5037712;28;20049;-35
2023/01/01 06:58:25;;;;;;;10.60;3.47;;;15.00;1.00;;;;;;5020439;28;20404;-35
2023/01/01 07:00:52;;;;;;;9.20;4.15;;;14.90;1.00;;;;;;5037870;28;20073;-35
2023/01/01 07:03:19;;;;;;;10.85;2.83;;;15.00;1.00;;;;;;5037519;28;20073;-35
2023/01/01 07:05:45;;;;;;;11.60;3.40;;;14.90;1.00;;;;;;5037744;28;20045;-35
2023/01/01 07:08:12;;;;;;;8.10;2.67;;;14.90;1.00;;;;;;5037872;28;20404;-36
2023/01/01 07:10:39;;;;;;;9.32;2.45;;;14.90;1.00;;;;;;5033481;28;20041;-35
2023/01/01 07:13:06;;;;;;;11.20;2.90;;;14.90;1.00;;;;;;5034395;28;20038;-36
2023/01/01 07:15:32;;;;;;;10.07;3.05;;;14.90;1.00;;;;;;5034655;28;20480;-35
2023/01/01 07:17:59;;;;;;;11.30;3.28;;;14.90;1.00;;;;;;5034438;28;20045;-35
2023/01/01 07:20:26;;;;;;;10.95;3.60;;;14.90;1.00;;;;;;5034500;28;20507;-35
2023/01/01 07:22:53;;;;;;;10.05;2.30;;;14.90;1.00;;;;;;5034251;28;20435;-35
2023/01/01 07:25:21;;;;;;;14.27;4.07;;;14.90;1.00;;;;;;5034407;28;20049;-36
2023/01/01 07:27:47;;;;;;;11.70;3.42;;;14.90;1.00;;;;;;5034334;28;20079;-36
2023/01/01 07:30:14;;;;;;;10.10;2.97;;;14.90;1.00;;;;;;5034203;28;20046;-35
2023/01/01 07:32:41;;;;;;;8.07;3.15;;;14.90;1.00;;;;;;5034004;28;20079;-36
2023/01/01 07:35:08;;;;;;;10.63;3.13;;;14.90;1.00;;;;;;5034396;28;20052;-35
2023/01/01 07:37:35;;;;;;;10.20;3.00;;;14.90;1.00;;;;;;5034219;28;20455;-35
2023/01/01 07:40:02;;;;;;;12.30;2.72;;;14.90;1.00;;;;;;5034178;28;20072;-35
2023/01/01 07:42:29;;;;;;;10.85;3.53;;;14.90;1.00;;;;;;5034041;28;20037;-36
2023/01/01 07:44:57;;;;;;;13.32;4.13;;;14.90;1.00;;;;;;5033924;28;20554;-35
2023/01/01 07:47:25;;;;;;;10.65;3.55;;;14.90;1.00;;;;;;5034027;28;20049;-36
2023/01/01 07:49:52;;;;;;;12.20;3.38;;;14.90;1.00;;;;;;5033930;28;20109;-35
2023/01/01 07:52:19;;;;;;;12.65;3.70;;;14.90;1.00;;;;;;5033828;28;20077;-35
2023/01/01 07:54:46;;;;;;;9.07;2.25;;;14.90;1.00;;;;;;5033642;28;20046;-36
2023/01/01 07:57:12;;;;;;;11.93;2.90;;;14.90;1.00;;;;;;5033786;28;20037;-35
2023/01/01 07:59:39;;;;;;;15.80;3.33;;;14.90;1.00;;;;;;5033783;28;20041;-35
2023/01/01 08:02:06;;;;;;;16.02;4.43;;;14.90;1.00;;;;;;5033677;28;20080;-35
2023/01/01 08:04:33;;;;;;;13.88;3.45;;;14.90;1.00;;;;;;5033308;28;20042;-35
2023/01/01 08:07:00;;;;;;;9.75;2.88;;;14.90;1.00;;;;;;5033510;28;20075;-40
2023/01/01 08:09:26;;;;;;;11.10;2.70;;;14.90;1.00;;;;;;5030026;28;20077;-36
2023/01/01 08:11:53;;;;;;;19.58;4.18;;;14.90;1.00;;;;;;5010980;28;20048;-36
2023/01/01 08:14:20;;;;;;;15.57;3.50;;;14.90;1.00;;;;;;5028864;28;20049;-36
2023/01/01 08:16:46;;;;;;;15.85;3.92;;;14.90;1.00;;;;;;5026930;28;20408;-36
2023/01/01 08:19:13;;;;;;;9.30;3.00;;;14.90;1.00;;;;;;5027256;28;20308;-36
2023/01/01 08:21:40;;;;;;;11.25;3.10;;;14.90;1.00;;;;;;5032875;28;20552;-36
2023/01/01 08:24:07;;;;;;;13.18;3.67;;;14.90;1.00;;;;;;5032930;28;20428;-36
2023/01/01 08:26:35;;;;;;;11.32;2.90;;;14.90;1.00;;;;;;5033264;28;20041;-36
2023/01/01 08:29:04;;;;;;;13.98;2.60;;;14.90;1.00;;;;;;5033226;28;20069;-36
2023/01/01 08:31:32;;;;;;;15.20;3.42;;;14.90;1.00;;;;;;5033268;28;20045;-36
2023/01/01 08:33:59;;;;;;;11.05;3.05;;;14.90;1.00;;;;;;5033015;28;20041;-36
2023/01/01 08:36:25;;;;;;;14.13;3.25;;;14.90;1.00;;;;;;5033042;28;20080;-36
2023/01/01 08:38:52;;;;;;;12.48;3.45;;;14.90;1.00;;;;;;5032985;28;20072;-36
2023/01/01 08:41:20;;;;;;;16.95;3.50;;;14.90;1.00;;;;;;5032978;28;20047;-36
2023/01/01 08:43:47;;;;;;;12.35;3.50;;;14.90;1.00;;;;;;5032676;28;20037;-35
2023/01/01 08:46:14;;;;;;;9.38;3.47;;;14.80;1.00;;;;;;5033071;28;20460;-36
2023/01/01 08:48:41;;;;;;;15.70;4.13;;;14.90;1.00;;;;;;5032828;28;20065;-36
2023/01/01 08:51:09;;;;;;;12.85;2.60;;;14.80;1.00;;;;;;5032727;28;20519;-36
2023/01/01 08:53:36;;;;;;;10.25;3.55;;;14.90;1.00;;;;;;5032429;28;20041;-36
2023/01/01 08:56:07;;;;;;;10.13;3.25;;;14.90;1.00;;;;;;5032466;28;20038;-36
2023/01/01 08:58:36;;;;;;;12.77;2.67;;;14.80;1.00;;;;;;5032782;28;20400;-35
2023/01/01 09:01:03;;;;;;;7.25;3.20;;;14.80;1.00;;;;;;5032564;28;20496;-35
2023/01/01 09:03:30;;;;;;;11.98;3.20;;;14.80;1.00;;;;;;5032222;28;20057;-36
2023/01/01 09:05:57;;;;;;;14.40;3.90;;;14.80;1.00;;;;;;5032479;28;20037;-36
2023/01/01 09:08:24;;;;;;;11.75;2.80;;;14.80;1.00;;;;;;5032495;28;20381;-36
2023/01/01 09:10:56;;;;;;;9.85;3.22;;;14.80;1.00;;;;;;5014884;28;20501;-36
2023/01/01 09:13:23;;;;;;;14.07;2.95;;;14.80;1.00;;;;;;5032134;28;20116;-35
2023/01/01 09:15:49;;;;;;;9.85;2.17;;;14.90;1.00;;;;;;5032181;28;20392;-34
2023/01/01 09:18:17;;;;;;;8.80;3.28;;;14.80;1.00;;;;;;5032463;28;20120;-35
2023/01/01 09:20:43;;;;;;;19.05;3.95;;;14.80;1.00;;;;;;5031987;28;20103;-35
2023/01/01 09:23:11;;;;;;;12.98;2.53;;;14.80;1.00;;;;;;5032029;28;20450;-36
2023/01/01 09:25:38;;;;;;;14.90;4.22;;;14.80;1.00;;;;;;5032251;28;20069;-35
2023/01/01 09:28:11;;;;;;;11.00;2.22;;;14.80;1.00;;;;;;5014556;28;20068;-35
2023/01/01 09:30:39;;;;;;;17.85;3.00;;;14.80;1.00;;;;;;5031931;28;20137;-35
2023/01/01 09:33:06;;;;;;;11.23;3.38;;;14.80;1.00;;;;;;5031538;28;20503;-35
2023/01/01 09:35:32;;;;;;;9.10;3.28;;;14.80;1.00;;;;;;5014260;28;20037;-36
2023/01/01 09:37:59;;;;;;;12.55;3.47;;;14.80;1.00;;;;;;5032025;28;20045;-36
2023/01/01 09:41:02;;;;;;;11.20;3.22;;;14.80;1.00;;;;;;5031926;28;20065;-37
2023/01/01 09:43:39;;;;;;;9.95;2.33;;;14.80;1.00;;;;;;5032257;28;20037;-36
2023/01/01 09:46:07;;;;;;;9.73;3.42;;;14.80;1.00;;;;;;5031945;28;20132;-36
2023/01/01 09:48:40;;;;;;;9.27;2.25;;;14.80;1.00;;;;;;5014451;28;20051;-36
2023/01/01 09:51:14;;;;;;;16.08;3.50;;;14.80;1.00;;;;;;5031619;28;20500;-36
2023/01/01 09:53:56;;;;;;;10.13;3.10;;;14.80;1.00;;;;;;5031667;28;20037;-35
2023/01/01 09:56:26;;;;;;;11.80;3.25;;;14.80;1.00;;;;;;5031427;28;20080;-35
2023/01/01 09:58:55;;;;;;;11.25;3.00;;;14.90;1.00;;;;;;5031824;28;20132;-35
2023/01/01 10:01:43;;;;;;;18.33;4.35;;;14.90;1.00;;;;;;5031869;28;20045;-35
2023/01/01 10:04:22;;;;;;;13.77;3.80;;;14.90;1.00;;;;;;5031391;28;20511;-36
2023/01/01 10:06:57;;;;;;;14.45;2.97;;;14.90;1.00;;;;;;5031511;28;20053;-35
2023/01/01 10:09:50;;;;;;;12.23;3.40;;;14.90;1.00;;;;;;5031565;28;20136;-35
2023/01/01 10:12:39;;;;;;;10.95;2.72;;;14.90;1.00;;;;;;5014137;28;20044;-35
2023/01/01 10:15:23;;;;;;;8.90;2.80;;;14.90;1.00;;;;;;5030943;28;20107;-36
2023/01/01 10:18:15;;;;;;;10.45;2.03;;;14.90;1.00;;;;;;5031719;28;20099;-35
2023/01/01 10:20:46;;;;;;;8.15;2.65;;;14.90;1.00;;;;;;5031585;28;20124;-35
2023/01/01 10:23:23;;;;;;;12.20;3.22;;;14.90;1.00;;;;;;5013757;28;20049;-35
2023/01/01 10:25:49;;;;;;;13.77;2.85;;;14.90;1.00;;;;;;5031479;28;20448;-35
2023/01/01 10:28:28;;;;;;;8.75;2.40;;;14.90;1.00;;;;;;5031817;28;20045;-35
2023/01/01 10:31:18;;;;;;;13.45;3.50;;;14.90;1.00;;;;;;5031537;28;20037;-35
2023/01/01 10:33:46;;;;;;;12.27;3.15;;;14.90;1.00;;;;;;5031114;28;20068;-35
2023/01/01 10:36:18;;;;;;;11.85;2.40;;;14.90;1.00;;;;;;5031343;28;20061;-36
2023/01/01 10:38:47;;;;;;;12.93;3.30;;;14.90;1.00;;;;;;5013687;28;20084;-36
2023/01/01 10:41:15;;;;;;;12.35;2.42;;;14.90;1.00;;;;;;5031335;28;20053;-36
2023/01/01 10:43:47;;;;;;;8.73;2.67;;;14.90;1.00;;;;;;5031948;28;20042;-36
2023/01/01 10:46:20;;;;;;;9.68;2.55;;;14.90;1.00;;;;;;5034985;28;20049;-36
2023/01/01 10:49:10;;;;;;;11.43;3.35;;;14.90;1.00;;;;;;5035243;28;20041;-36
2023/01/01 10:51:58;;;;;;;8.82;2.03;;;14.90;1.00;;;;;;5034990;28;20041;-35
2023/01/01 10:54:36;;;;;;;7.90;1.92;;;14.90;1.00;;;;;;5021719;28;20056;-36
2023/01/01 10:57:20;;;;;;;10.45;2.10;;;14.90;1.00;;;;;;5034819;28;20045;-36
2023/01/01 10:59:48;;;;;;;10.27;2.05;;;15.00;1.00;;;;;;5017189;28;20088;-36
2023/01/01 11:02:26;;;;;;;13.68;2.33;;;14.90;1.00;;;;;;5034983;28;20057;-36
2023/01/01 11:05:19;;;;;;;10.52;2.22;;;14.90;1.00;;;;;;5034349;28;20128;-36
2023/01/01 11:07:48;;;;;;;15.75;2.53;;;15.00;1.00;;;;;;5011887;28;20140;-35
2023/01/01 11:10:19;;;;;;;11.55;2.45;;;14.90;1.00;;;;;;5034552;28;20045;-36
2023/01/01 11:12:46;;;;;;;11.20;3.05;;;14.90;1.00;;;;;;5016961;28;20041;-36
2023/01/01 11:15:40;;;;;;;10.95;2.83;;;15.00;1.00;;;;;;5034332;28;20516;-36
2023/01/01 11:18:12;;;;;;;6.40;1.85;;;15.00;1.00;;;;;;5034614;28;20092;-36
2023/01/01 11:20:40;;;;;;;16.13;3.20;;;15.00;1.00;;;;;;5034902;28;20055;-36
2023/01/01 11:23:35;;;;;;;10.25;2.38;;;15.00;1.00;;;;;;5034188;28;20072;-36
2023/01/01 11:26:11;;;;;;;12.65;2.80;;;15.00;1.00;;;;;;5031550;28;20107;-36
2023/01/01 11:29:19;;;;;;;11.57;2.78;;;15.00;1.00;;;;;;5034485;28;20072;-35
2023/01/01 11:31:59;;;;;;;7.13;1.75;;;15.00;1.00;;;;;;5033743;28;20049;-35
2023/01/01 11:34:28;;;;;;;11.55;3.78;;;15.00;1.00;;;;;;5033858;28;20048;-35
2023/01/01 11:37:13;;;;;;;11.60;2.90;;;15.00;1.00;;;;;;5034300;28;20049;-35
2023/01/01 11:39:49;;;;;;;11.63;2.45;;;15.00;1.00;;;;;;5034065;28;20049;-35
2023/01/01 11:42:22;;;;;;;9.50;2.67;;;15.00;1.00;;;;;;5034064;28;20034;-35
2023/01/01 11:45:02;;;;;;;9.00;2.53;;;15.00;1.00;;;;;;5033805;28;20049;-35
2023/01/01 11:47:40;;;;;;;7.25;2.45;;;15.00;1.00;;;;;;5033997;28;20497;-35
2023/01/01 11:50:18;;;;;;;11.68;2.67;;;15.00;1.00;;;;;;5033771;28;20049;-35
2023/01/01 11:52:57;;;;;;;9.07;2.60;;;15.00;1.00;;;;;;5033678;28;20459;-36
2023/01/01 11:55:31;;;;;;;9.85;2.25;;;15.00;1.00;;;;;;5015090;28;20042;-35
2023/01/01 11:58:13;;;;;;;11.45;2.30;;;15.00;1.00;;;;;;5033871;28;20611;-35
2023/01/01 12:00:48;;;;;;;7.95;2.20;;;15.00;1.00;;;;;;5033698;28;20037;-36
2023/01/01 12:03:31;;;;;;;12.00;2.20;;;15.00;1.00;;;;;;5033314;28;20092;-35
2023/01/01 12:06:21;;;;;;;9.13;2.33;;;15.00;1.00;;;;;;5033601;28;20049;-35
2023/01/01 12:09:16;;;;;;;9.68;2.63;;;15.00;1.00;;;;;;5033715;28;20655;-36
2023/01/01 12:11:58;;;;;;;16.33;2.20;;;15.00;1.00;;;;;;5033478;28;20041;-36
2023/01/01 12:14:31;;;;;;;11.82;2.20;;;15.00;1.00;;;;;;5033274;28;20489;-36
2023/01/01 12:17:10;;;;;;;8.90;2.22;;;15.00;1.00;;;;;;5033370;28;20061;-35
2023/01/01 12:20:05;;;;;;;11.15;2.95;;;15.00;1.00;;;;;;5033300;28;20045;-35
2023/01/01 12:22:32;;;;;;;9.48;2.50;;;15.00;1.00;;;;;;5033165;28;20136;-36
2023/01/01 12:24:59;;;;;;;12.80;2.95;;;15.00;1.00;;;;;;5032979;28;20099;-36
2023/01/01 12:27:51;;;;;;;13.20;2.22;;;15.00;1.00;;;;;;5033152;28;20128;-35
2023/01/01 12:30:49;;;;;;;13.00;2.40;;;15.00;1.00;;;;;;5032900;28;20061;-35
2023/01/01 12:33:19;;;;;;;9.30;2.00;;;15.00;1.00;;;;;;5000798;28;20462;-35
2023/01/01 12:35:56;;;;;;;9.52;1.92;;;15.00;1.00;;;;;;5032972;28;20045;-35
2023/01/01 12:38:52;;;;;;;8.88;2.45;;;15.00;1.00;;;;;;5033116;28;20049;-35
2023/01/01 12:41:35;;;;;;;14.35;2.38;;;15.00;1.00;;;;;;5032862;28;20061;-35
2023/01/01 12:44:29;;;;;;;10.43;3.20;;;15.00;1.00;;;;;;5032758;28;20423;-35
2023/01/01 12:47:05;;;;;;;10.13;1.70;;;15.00;1.00;;;;;;5032793;28;20052;-36
2023/01/01 12:49:46;;;;;;;8.02;1.88;;;15.00;1.00;;;;;;5032748;28;20042;-35
2023/01/01 12:52:16;;;;;;;13.25;2.88;;;15.00;1.00;;;;;;5032675;28;20045;-35
2023/01/01 12:55:18;;;;;;;9.23;2.85;;;15.00;1.00;;;;;;5032552;28;20103;-34
2023/01/01 12:58:15;;;;;;;13.02;3.58;;;15.00;1.00;;;;;;4996041;28;20057;-35
2023/01/01 13:00:50;;;;;;;12.82;4.10;;;15.00;1.00;;;;;;5031457;28;20108;-36
2023/01/01 13:03:25;;;;;;;8.35;1.95;;;15.00;1.00;;;;;;5032391;28;20504;-35
2023/01/01 13:05:55;;;;;;;6.18;1.58;;;15.00;1.00;;;;;;5032255;28;20122;-35
2023/01/01 13:08:22;;;;;;;11.05;2.55;;;15.00;1.00;;;;;;5014070;28;20052;-36
2023/01/01 13:10:53;;;;;;;15.63;3.47;;;15.00;1.00;;;;;;5032406;28;20121;-35
2023/01/01 13:13:20;;;;;;;9.60;2.20;;;15.00;1.00;;;;;;5032181;28;20068;-36
2023/01/01 13:15:50;;;;;;;10.60;2.50;;;15.00;1.00;;;;;;5032164;28;20444;-35
2023/01/01 13:18:34;;;;;;;12.25;3.15;;;15.00;1.00;;;;;;5079953;22;20076;-38
2023/01/01 13:21:25;;;;;;;9.73;3.42;;;15.00;1.00;;;;;;5077176;28;20480;-37